Carman, Illinois
Current Conditions -  °F | °C
As of 6:53 PM on Friday 19 Dec 2014 (Local Time) from KBRL Reporting Station
Overcast Overcast  
Wind Chill: 26°   Ceiling: 5000
Heat Index: 32°   Visibility: 9mi
Dew Point: 24°   Wind: 6mph
Humidity: 73%   Direction: 120°ESE
Pressure: 30.25"   Gusts: NA
Location:  40.74°N, 91.06°W
Report Text: KBRL 200053Z AUTO 12005KT 9SM OVC050 00/M04 A3025 RMK AO2 SLP251 T00001044
Loading
Personal Weather Stations






























Interactive Weather Map New forecast layout! Learn more

10-Day Weather Forecast

Advertisements
Track Severe Weather on mobile